TAF Text Data
IDs:
Format:
Raw Decoded Include METAR

Data at: 1711 UTC 20 May 2022

METAR for:KRYW (Lago Vista/Allen Arp, TX, US)
Text:KRYW 201655Z AUTO 18012G20KT 10SM BKN027 29/21 A2968 RMK AO2 T02880207
Temperature: 28.8°C ( 84°F)
Dewpoint: 20.7°C ( 69°F) [RH = 62%]
Pressure (altimeter):29.68 inches Hg (1005.2 mb)
Winds:from the S (180 degrees) at 14 MPH (12 knots; 6.2 m/s) gusting to 23 MPH (20 knots; 10.3 m/s)
Visibility:10 or more sm (16+ km)
Ceiling:2700 feet AGL
Clouds: broken clouds at 2700 feet AGL
QC Flag:automated observation with no human augmentation

TAF for:KRYW (Lago Vista/Allen Arp, TX, US)
Text:No data found